createdAt,value
2022-10-13T00:00:25.707Z,100.00
2022-10-13T00:02:52.246Z,100.00
2022-10-13T00:05:18.790Z,100.00
2022-10-13T00:07:45.423Z,100.00
2022-10-13T00:10:13.330Z,100.00
2022-10-13T00:12:40.032Z,100.00
2022-10-13T00:15:08.517Z,100.00
2022-10-13T00:17:35.473Z,100.00
2022-10-13T00:20:01.986Z,100.00
2022-10-13T00:22:28.555Z,100.00
2022-10-13T00:24:55.064Z,100.00
2022-10-13T00:27:23.169Z,100.00
2022-10-13T00:29:49.806Z,100.00
2022-10-13T00:32:16.724Z,100.00
2022-10-13T00:34:43.449Z,100.00
2022-10-13T00:37:09.991Z,100.00
2022-10-13T00:39:37.243Z,100.00
2022-10-13T00:42:04.722Z,100.00
2022-10-13T00:45:07.898Z,100.00
2022-10-13T00:47:40.516Z,100.00
2022-10-13T00:50:10.600Z,100.00
2022-10-13T00:52:39.118Z,100.00
2022-10-13T00:55:07.912Z,100.00
2022-10-13T00:57:36.192Z,100.00
2022-10-13T01:00:04.183Z,100.00
2022-10-13T01:02:34.917Z,100.00
2022-10-13T01:05:04.164Z,100.00
2022-10-13T01:07:31.407Z,100.00
2022-10-13T01:09:58.863Z,100.00
2022-10-13T01:12:38.143Z,100.00
2022-10-13T01:15:11.365Z,100.00
2022-10-13T01:17:48.551Z,100.00
2022-10-13T01:20:45.081Z,100.00
2022-10-13T01:23:30.425Z,100.00
2022-10-13T01:26:24.399Z,100.00
2022-10-13T01:29:16.300Z,100.00
2022-10-13T01:31:51.574Z,100.00
2022-10-13T01:34:23.222Z,100.00
2022-10-13T01:36:58.431Z,100.00
2022-10-13T01:39:31.396Z,100.00
2022-10-13T01:42:04.188Z,100.00
2022-10-13T01:44:36.755Z,100.00
2022-10-13T01:47:07.364Z,100.00
2022-10-13T01:49:36.043Z,100.00
2022-10-13T01:52:07.255Z,100.00
2022-10-13T01:54:33.910Z,100.00
2022-10-13T01:57:00.440Z,100.00
2022-10-13T01:59:29.565Z,100.00
2022-10-13T02:02:09.517Z,100.00
2022-10-13T02:04:45.622Z,100.00
2022-10-13T02:07:19.757Z,100.00
2022-10-13T02:09:55.056Z,100.00
2022-10-13T02:12:27.452Z,100.00
2022-10-13T02:14:55.516Z,100.00
2022-10-13T02:17:23.907Z,100.00
2022-10-13T02:19:50.450Z,100.00
2022-10-13T02:22:18.303Z,100.00
2022-10-13T02:24:45.064Z,100.00
2022-10-13T02:27:11.963Z,100.00
2022-10-13T02:29:50.087Z,100.00
2022-10-13T02:32:16.892Z,100.00
2022-10-13T02:34:45.118Z,100.00
2022-10-13T02:37:11.651Z,100.00
2022-10-13T02:39:38.215Z,100.00
2022-10-13T02:42:05.078Z,100.00
2022-10-13T02:44:31.680Z,100.00
2022-10-13T02:46:58.697Z,100.00
2022-10-13T02:49:25.266Z,100.00
2022-10-13T02:51:53.340Z,100.00
2022-10-13T02:54:20.225Z,100.00
2022-10-13T02:56:46.770Z,100.00
2022-10-13T02:59:13.388Z,100.00
2022-10-13T03:01:39.892Z,100.00
2022-10-13T03:04:06.670Z,100.00
2022-10-13T03:06:33.582Z,100.00
2022-10-13T03:09:02.544Z,100.00
2022-10-13T03:11:29.076Z,100.00
2022-10-13T03:13:55.621Z,100.00
2022-10-13T03:16:22.434Z,100.00
2022-10-13T03:18:49.026Z,100.00
2022-10-13T03:21:15.583Z,100.00
2022-10-13T03:23:42.094Z,100.00
2022-10-13T03:26:10.131Z,100.00
2022-10-13T03:28:36.798Z,100.00
2022-10-13T03:31:04.812Z,100.00
2022-10-13T03:33:31.488Z,100.00
2022-10-13T03:35:59.532Z,100.00
2022-10-13T03:38:26.295Z,100.00
2022-10-13T03:40:52.834Z,100.00
2022-10-13T03:43:20.699Z,100.00
2022-10-13T03:45:54.845Z,100.00
2022-10-13T03:48:21.353Z,100.00
2022-10-13T03:50:47.892Z,100.00
2022-10-13T03:53:14.524Z,100.00
2022-10-13T03:55:41.026Z,100.00
2022-10-13T03:58:07.882Z,100.00
2022-10-13T04:00:36.582Z,100.00
2022-10-13T04:03:03.088Z,100.00
2022-10-13T04:05:29.616Z,100.00
2022-10-13T04:07:56.120Z,100.00
2022-10-13T04:10:22.753Z,100.00
2022-10-13T04:12:49.285Z,100.00
2022-10-13T04:15:15.997Z,100.00
2022-10-13T04:17:43.880Z,100.00
2022-10-13T04:20:10.950Z,100.00
2022-10-13T04:22:37.509Z,100.00
2022-10-13T04:25:05.096Z,100.00
2022-10-13T04:27:31.624Z,100.00
2022-10-13T04:29:58.515Z,100.00
2022-10-13T04:32:25.036Z,100.00
2022-10-13T04:34:52.930Z,100.00
2022-10-13T04:37:19.426Z,100.00
2022-10-13T04:39:46.089Z,100.00
2022-10-13T04:42:12.588Z,100.00
2022-10-13T04:44:39.110Z,100.00
2022-10-13T04:47:05.624Z,100.00
2022-10-13T04:49:32.138Z,100.00
2022-10-13T04:52:00.047Z,100.00
2022-10-13T04:54:26.720Z,100.00
2022-10-13T04:56:53.280Z,100.00
2022-10-13T04:59:19.944Z,100.00
2022-10-13T05:01:46.453Z,100.00
2022-10-13T05:04:13.322Z,100.00
2022-10-13T05:07:05.216Z,100.00
2022-10-13T05:09:30.040Z,100.00
2022-10-13T05:11:56.571Z,100.00
2022-10-13T05:14:23.481Z,100.00
2022-10-13T05:16:50.069Z,100.00
2022-10-13T05:19:16.592Z,100.00
2022-10-13T05:21:43.212Z,100.00
2022-10-13T05:24:09.716Z,100.00
2022-10-13T05:26:37.658Z,100.00
2022-10-13T05:29:04.300Z,100.00
2022-10-13T05:31:32.360Z,100.00
2022-10-13T05:33:59.426Z,100.00
2022-10-13T05:36:27.469Z,100.00
2022-10-13T05:38:56.371Z,100.00
2022-10-13T05:41:24.127Z,100.00
2022-10-13T05:43:54.844Z,100.00
2022-10-13T05:46:21.358Z,100.00
2022-10-13T05:48:47.863Z,100.00
2022-10-13T05:51:17.223Z,100.00
2022-10-13T05:53:51.110Z,100.00
2022-10-13T05:56:25.950Z,100.00
2022-10-13T05:58:58.374Z,100.00
2022-10-13T06:01:28.068Z,100.00
2022-10-13T06:03:59.059Z,100.00
2022-10-13T06:06:29.131Z,100.00
2022-10-13T06:08:58.401Z,100.00
2022-10-13T06:11:24.938Z,100.00
2022-10-13T06:13:51.460Z,100.00
2022-10-13T06:16:19.309Z,100.00
2022-10-13T06:18:45.941Z,100.00
2022-10-13T06:21:12.612Z,100.00
2022-10-13T06:23:39.192Z,100.00
2022-10-13T06:26:07.238Z,100.00
2022-10-13T06:28:33.809Z,100.00
2022-10-13T06:31:00.448Z,100.00
2022-10-13T06:33:28.326Z,100.00
2022-10-13T06:35:54.827Z,100.00
2022-10-13T06:38:21.370Z,100.00
2022-10-13T06:40:48.074Z,100.00
2022-10-13T06:43:14.715Z,100.00
2022-10-13T06:45:41.281Z,100.00
2022-10-13T06:48:07.948Z,100.00
2022-10-13T06:50:40.687Z,100.00
2022-10-13T06:53:09.278Z,100.00
2022-10-13T06:55:35.898Z,100.00
2022-10-13T06:58:02.454Z,100.00
2022-10-13T07:00:29.082Z,100.00
2022-10-13T07:02:55.602Z,100.00
2022-10-13T07:05:22.254Z,100.00
2022-10-13T07:07:51.785Z,100.00
2022-10-13T07:10:18.527Z,100.00
2022-10-13T07:12:45.163Z,100.00
2022-10-13T07:15:11.719Z,100.00
2022-10-13T07:17:38.260Z,100.00
2022-10-13T07:20:07.381Z,100.00
2022-10-13T07:22:34.242Z,100.00
2022-10-13T07:25:02.117Z,100.00
2022-10-13T07:27:28.792Z,100.00
2022-10-13T07:29:55.482Z,100.00
2022-10-13T07:32:22.002Z,100.00
2022-10-13T07:34:52.169Z,100.00
2022-10-13T07:37:19.026Z,100.00
2022-10-13T07:39:45.712Z,100.00
2022-10-13T07:42:13.603Z,100.00
2022-10-13T07:44:40.245Z,100.00
2022-10-13T07:47:06.746Z,100.00
2022-10-13T07:49:33.290Z,100.00
2022-10-13T07:52:00.191Z,100.00
2022-10-13T07:54:27.817Z,100.00
2022-10-13T07:56:56.022Z,100.00
2022-10-13T07:59:24.267Z,100.00
2022-10-13T08:01:51.400Z,100.00
2022-10-13T08:04:18.210Z,100.00
2022-10-13T08:06:44.906Z,100.00
2022-10-13T08:09:11.553Z,100.00
2022-10-13T08:11:38.647Z,100.00
2022-10-13T08:14:05.199Z,100.00
2022-10-13T08:16:33.181Z,100.00
2022-10-13T08:18:59.723Z,100.00
2022-10-13T08:21:53.389Z,100.00
2022-10-13T08:24:16.424Z,100.00
2022-10-13T08:26:44.324Z,100.00
2022-10-13T08:29:27.021Z,100.00
2022-10-13T08:31:55.769Z,100.00
2022-10-13T08:34:23.327Z,100.00
2022-10-13T08:36:49.944Z,100.00
2022-10-13T08:39:16.437Z,99.46
2022-10-13T08:41:44.105Z,99.10
2022-10-13T08:47:14.857Z,97.74
2022-10-13T08:49:43.097Z,97.48
2022-10-13T08:52:16.418Z,96.89
2022-10-13T08:54:43.130Z,97.10
2022-10-13T08:57:10.805Z,96.21
2022-10-13T08:59:37.377Z,94.38
2022-10-13T09:02:11.744Z,94.78
2022-10-13T09:04:41.266Z,94.95
2022-10-13T09:07:14.377Z,94.58
2022-10-13T09:09:41.120Z,93.22
2022-10-13T09:12:10.057Z,92.58
2022-10-13T09:14:39.855Z,91.65
2022-10-13T09:17:17.274Z,89.91
2022-10-13T09:19:44.962Z,88.93
2022-10-13T09:22:21.810Z,88.36
2022-10-13T09:25:04.396Z,88.24
2022-10-13T09:27:42.408Z,89.13
2022-10-13T09:30:25.608Z,90.12
2022-10-13T09:33:00.920Z,91.43
2022-10-13T09:35:27.434Z,91.89
2022-10-13T09:38:03.005Z,91.68
2022-10-13T09:40:29.701Z,90.93
2022-10-13T09:42:57.013Z,90.71
2022-10-13T09:45:25.408Z,90.24
2022-10-13T09:47:55.604Z,90.33
2022-10-13T09:50:25.036Z,90.40
2022-10-13T09:52:52.143Z,89.44
2022-10-13T09:55:32.327Z,89.88
2022-10-13T09:58:05.706Z,88.43
2022-10-13T10:00:32.983Z,88.11
2022-10-13T10:03:05.463Z,88.71
2022-10-13T10:05:41.977Z,88.55
2022-10-13T10:08:15.700Z,86.47
2022-10-13T10:10:42.506Z,86.48
2022-10-13T10:13:11.368Z,84.85
2022-10-13T10:15:47.605Z,85.44
2022-10-13T10:18:21.089Z,83.28
2022-10-13T10:20:59.833Z,82.81
2022-10-13T10:23:37.862Z,83.01
2022-10-13T10:26:09.605Z,80.84
2022-10-13T10:29:04.856Z,79.12
2022-10-13T10:31:44.129Z,79.02
2022-10-13T10:34:30.854Z,77.74
2022-10-13T10:37:10.934Z,79.04
2022-10-13T10:39:46.489Z,79.68
2022-10-13T10:42:37.755Z,79.41
2022-10-13T10:45:16.054Z,80.23
2022-10-13T10:47:45.915Z,80.95
2022-10-13T10:50:17.394Z,82.02
2022-10-13T10:52:53.738Z,82.49
2022-10-13T10:55:27.264Z,81.86
2022-10-13T10:58:03.712Z,81.34
2022-10-13T11:00:39.076Z,82.42
2022-10-13T11:03:13.364Z,81.93
2022-10-13T11:06:01.780Z,82.55
2022-10-13T11:08:30.632Z,82.61
2022-10-13T11:11:34.823Z,83.73
2022-10-13T11:14:24.904Z,82.89
2022-10-13T11:17:19.669Z,81.06
2022-10-13T11:19:47.731Z,77.60
2022-10-13T11:22:18.292Z,76.54
2022-10-13T11:24:48.739Z,74.03
2022-10-13T11:27:38.523Z,71.63
2022-10-13T11:30:26.612Z,71.68
2022-10-13T11:32:53.258Z,72.57
2022-10-13T11:35:23.026Z,72.49
2022-10-13T11:38:08.420Z,71.74
2022-10-13T11:40:44.797Z,72.21
2022-10-13T11:43:32.053Z,74.39
2022-10-13T11:46:24.314Z,74.34
2022-10-13T11:49:05.204Z,76.07
2022-10-13T11:51:48.543Z,76.30
2022-10-13T11:54:25.494Z,76.99
2022-10-13T11:56:53.967Z,76.92
2022-10-13T11:59:23.945Z,76.65
2022-10-13T12:01:53.941Z,73.69
2022-10-13T12:04:22.857Z,73.68
2022-10-13T12:06:55.667Z,74.44
2022-10-13T12:09:24.207Z,75.50
2022-10-13T12:11:57.291Z,75.83
2022-10-13T12:14:29.595Z,76.16
2022-10-13T12:16:58.172Z,76.66
2022-10-13T12:19:27.202Z,78.73
2022-10-13T12:21:55.756Z,78.80
2022-10-13T12:24:25.064Z,79.10
2022-10-13T12:26:51.893Z,79.12
2022-10-13T12:29:21.245Z,80.02
2022-10-13T12:31:50.705Z,79.53
2022-10-13T12:34:20.679Z,80.12
2022-10-13T12:36:54.398Z,79.85
2022-10-13T12:39:21.415Z,80.66
2022-10-13T12:41:49.591Z,81.16
2022-10-13T12:44:19.949Z,81.24
2022-10-13T12:46:48.783Z,81.35
2022-10-13T12:49:17.129Z,81.57
2022-10-13T12:51:46.958Z,81.47
2022-10-13T12:54:19.761Z,82.12
2022-10-13T12:56:46.956Z,82.48
2022-10-13T12:59:17.760Z,81.87
2022-10-13T13:01:45.586Z,81.73
2022-10-13T13:04:28.109Z,81.89
2022-10-13T13:06:56.713Z,81.70
2022-10-13T13:09:28.276Z,80.94
2022-10-13T13:12:21.261Z,80.91
2022-10-13T13:14:50.612Z,80.81
2022-10-13T13:17:57.404Z,81.39
2022-10-13T13:20:25.686Z,80.60
2022-10-13T13:22:52.243Z,80.75
2022-10-13T13:25:18.899Z,80.44
2022-10-13T13:27:45.406Z,81.30
2022-10-13T13:30:15.408Z,80.17
2022-10-13T13:32:41.930Z,80.38
2022-10-13T13:35:09.598Z,79.34
2022-10-13T13:37:38.946Z,79.00
2022-10-13T13:40:07.254Z,78.66
2022-10-13T13:42:33.827Z,79.08
2022-10-13T13:45:00.307Z,79.55
2022-10-13T13:47:28.697Z,78.91
2022-10-13T13:49:56.684Z,78.73
2022-10-13T13:52:24.221Z,78.40
2022-10-13T13:54:51.451Z,78.65
2022-10-13T13:57:19.078Z,78.98
2022-10-13T13:59:46.004Z,79.25
2022-10-13T14:02:14.499Z,79.31
2022-10-13T14:04:42.970Z,79.94
2022-10-13T14:07:09.552Z,80.65
2022-10-13T14:09:36.213Z,80.92
2022-10-13T14:12:02.911Z,81.52
2022-10-13T14:14:30.453Z,81.98
2022-10-13T14:16:56.960Z,82.79
2022-10-13T14:19:23.568Z,82.60
2022-10-13T14:21:51.458Z,83.05
2022-10-13T14:24:18.234Z,82.79
2022-10-13T14:26:44.773Z,82.67
2022-10-13T14:29:11.391Z,82.56
2022-10-13T14:31:37.992Z,82.21
2022-10-13T14:34:04.487Z,82.06
2022-10-13T14:36:31.172Z,82.38
2022-10-13T14:38:59.171Z,83.07
2022-10-13T14:41:25.839Z,82.42
2022-10-13T14:43:52.868Z,82.99
2022-10-13T14:46:19.363Z,82.72
2022-10-13T14:48:45.899Z,82.31
2022-10-13T14:51:12.764Z,82.51
2022-10-13T14:53:41.038Z,83.03
2022-10-13T14:56:17.835Z,83.05
2022-10-13T14:58:44.645Z,83.14
2022-10-13T15:01:11.173Z,83.24
2022-10-13T15:03:37.693Z,83.64
2022-10-13T15:06:04.491Z,83.42
2022-10-13T15:08:31.036Z,83.62
2022-10-13T15:11:00.772Z,84.25
2022-10-13T15:13:29.184Z,84.05
2022-10-13T15:15:57.796Z,83.84
2022-10-13T15:18:28.972Z,84.25
2022-10-13T15:20:56.077Z,84.23
2022-10-13T15:23:23.071Z,84.43
2022-10-13T15:25:50.796Z,84.80
2022-10-13T15:28:17.419Z,85.32
2022-10-13T15:30:45.602Z,85.08
2022-10-13T15:33:12.250Z,85.77
2022-10-13T15:35:38.897Z,85.42
2022-10-13T15:38:05.475Z,85.53
2022-10-13T15:40:32.217Z,86.38
2022-10-13T15:42:58.769Z,87.36
2022-10-13T15:45:25.701Z,88.37
2022-10-13T15:47:53.623Z,88.07
2022-10-13T15:50:20.131Z,88.29
2022-10-13T15:52:46.712Z,89.13
2022-10-13T15:55:13.256Z,89.77
2022-10-13T15:57:39.774Z,89.66
2022-10-13T16:00:08.260Z,90.42
2022-10-13T16:02:34.815Z,89.84
2022-10-13T16:05:02.731Z,90.90
2022-10-13T16:07:29.262Z,91.13
2022-10-13T16:09:55.888Z,91.12
2022-10-13T16:12:22.597Z,91.23
2022-10-13T16:14:49.380Z,92.12
2022-10-13T16:17:15.870Z,91.69
2022-10-13T16:19:42.387Z,92.42
2022-10-13T16:22:10.275Z,93.50
2022-10-13T16:24:37.063Z,93.74
2022-10-13T16:27:03.701Z,94.26
2022-10-13T16:29:30.417Z,94.49
2022-10-13T16:31:57.061Z,93.73
2022-10-13T16:34:23.635Z,94.58
2022-10-13T16:36:50.171Z,95.65
2022-10-13T16:39:18.199Z,96.51
2022-10-13T16:41:44.760Z,96.79
2022-10-13T16:44:11.363Z,97.37
2022-10-13T16:46:37.910Z,97.51
2022-10-13T16:49:04.452Z,97.26
2022-10-13T16:51:31.075Z,97.80
2022-10-13T16:54:02.943Z,98.23
2022-10-13T16:56:32.709Z,98.77
2022-10-13T16:59:01.330Z,98.89
2022-10-13T17:01:28.550Z,98.64
2022-10-13T17:03:55.331Z,100.00
2022-10-13T17:06:24.055Z,100.00
2022-10-13T17:08:50.626Z,100.00
2022-10-13T17:11:19.383Z,100.00
2022-10-13T17:13:47.767Z,100.00
2022-10-13T17:16:14.566Z,100.00
2022-10-13T17:18:41.201Z,100.00
2022-10-13T17:21:09.960Z,100.00
2022-10-13T17:23:37.389Z,100.00
2022-10-13T17:26:06.336Z,100.00
2022-10-13T17:28:33.076Z,100.00
2022-10-13T17:31:03.056Z,100.00
2022-10-13T17:33:31.956Z,100.00
2022-10-13T17:36:00.141Z,100.00
2022-10-13T17:38:26.684Z,100.00
2022-10-13T17:40:58.800Z,100.00
2022-10-13T17:43:26.363Z,100.00
2022-10-13T17:45:52.957Z,100.00
2022-10-13T17:48:23.088Z,100.00
2022-10-13T17:50:49.822Z,100.00
2022-10-13T17:53:16.332Z,100.00
2022-10-13T17:55:43.167Z,100.00
2022-10-13T17:58:09.717Z,100.00
2022-10-13T18:01:00.649Z,100.00
2022-10-13T18:03:25.142Z,100.00
2022-10-13T18:05:51.944Z,100.00
2022-10-13T18:08:18.657Z,100.00
2022-10-13T18:11:07.073Z,100.00
2022-10-13T18:13:32.016Z,100.00
2022-10-13T18:16:02.793Z,100.00
2022-10-13T18:18:30.907Z,100.00
2022-10-13T18:20:57.449Z,100.00
2022-10-13T18:23:24.094Z,100.00
2022-10-13T18:25:50.659Z,100.00
2022-10-13T18:28:17.250Z,100.00
2022-10-13T18:30:43.905Z,100.00
2022-10-13T18:33:10.437Z,100.00
2022-10-13T18:35:38.441Z,100.00
2022-10-13T18:38:04.933Z,100.00
2022-10-13T18:40:31.558Z,100.00
2022-10-13T18:42:58.065Z,100.00
2022-10-13T18:45:24.574Z,100.00
2022-10-13T18:47:51.175Z,100.00
2022-10-13T18:50:17.772Z,100.00
2022-10-13T18:52:46.262Z,100.00
2022-10-13T18:55:12.770Z,100.00
2022-10-13T18:57:39.307Z,100.00
2022-10-13T19:00:10.137Z,100.00
2022-10-13T19:02:36.637Z,100.00
2022-10-13T19:05:03.242Z,100.00
2022-10-13T19:07:29.767Z,100.00
2022-10-13T19:09:57.616Z,100.00
2022-10-13T19:12:24.184Z,100.00
2022-10-13T19:14:50.718Z,100.00
2022-10-13T19:17:17.227Z,100.00
2022-10-13T19:19:43.781Z,100.00
2022-10-13T19:22:10.406Z,100.00
2022-10-13T19:24:36.918Z,100.00
2022-10-13T19:27:04.874Z,100.00
2022-10-13T19:29:31.426Z,100.00
2022-10-13T19:31:57.991Z,100.00
2022-10-13T19:34:24.602Z,100.00
2022-10-13T19:36:51.145Z,100.00
2022-10-13T19:39:20.617Z,100.00
2022-10-13T19:41:48.297Z,100.00
2022-10-13T19:44:18.189Z,100.00
2022-10-13T19:46:46.630Z,100.00
2022-10-13T19:49:16.018Z,100.00
2022-10-13T19:51:42.560Z,100.00
2022-10-13T19:54:10.153Z,100.00
2022-10-13T19:56:36.878Z,100.00
2022-10-13T19:59:03.919Z,100.00
2022-10-13T20:01:32.021Z,100.00
2022-10-13T20:03:58.700Z,100.00
2022-10-13T20:06:25.224Z,100.00
2022-10-13T20:08:51.737Z,100.00
2022-10-13T20:11:23.771Z,100.00
2022-10-13T20:13:52.258Z,100.00
2022-10-13T20:16:22.202Z,100.00
2022-10-13T20:18:53.200Z,100.00
2022-10-13T20:21:19.957Z,100.00
2022-10-13T20:23:46.620Z,100.00
2022-10-13T20:26:13.509Z,100.00
2022-10-13T20:28:43.004Z,100.00
2022-10-13T20:31:10.273Z,100.00
2022-10-13T20:33:36.797Z,100.00
2022-10-13T20:36:06.976Z,100.00
2022-10-13T20:38:35.013Z,100.00
2022-10-13T20:41:05.795Z,100.00
2022-10-13T20:43:32.584Z,100.00
2022-10-13T20:46:00.506Z,100.00
2022-10-13T20:48:36.757Z,100.00
2022-10-13T20:51:19.291Z,100.00
2022-10-13T20:53:46.834Z,100.00
2022-10-13T20:56:15.080Z,100.00
2022-10-13T20:58:42.087Z,100.00
2022-10-13T21:01:08.953Z,100.00
2022-10-13T21:03:35.688Z,100.00
2022-10-13T21:06:03.961Z,100.00
2022-10-13T21:08:31.906Z,100.00
2022-10-13T21:11:03.175Z,100.00
2022-10-13T21:13:29.773Z,100.00
2022-10-13T21:15:56.302Z,100.00
2022-10-13T21:18:22.855Z,100.00
2022-10-13T21:20:49.380Z,100.00
2022-10-13T21:23:15.930Z,100.00
2022-10-13T21:25:43.794Z,100.00
2022-10-13T21:28:10.322Z,100.00
2022-10-13T21:30:36.837Z,100.00
2022-10-13T21:33:03.417Z,100.00
2022-10-13T21:35:29.924Z,100.00
2022-10-13T21:37:56.449Z,100.00
2022-10-13T21:40:23.101Z,100.00
2022-10-13T21:42:50.980Z,100.00
2022-10-13T21:45:17.676Z,100.00
2022-10-13T21:47:44.334Z,100.00
2022-10-13T21:50:10.976Z,100.00
2022-10-13T21:52:37.563Z,100.00
2022-10-13T21:55:05.083Z,100.00
2022-10-13T21:57:31.607Z,100.00
2022-10-13T21:59:59.568Z,100.00
2022-10-13T22:02:26.099Z,100.00
2022-10-13T22:04:52.635Z,100.00
2022-10-13T22:07:19.408Z,100.00
2022-10-13T22:09:46.255Z,100.00
2022-10-13T22:12:12.743Z,100.00
2022-10-13T22:14:39.261Z,100.00
2022-10-13T22:17:07.127Z,100.00
2022-10-13T22:19:33.743Z,100.00
2022-10-13T22:22:00.263Z,100.00
2022-10-13T22:24:26.793Z,100.00
2022-10-13T22:26:53.309Z,100.00
2022-10-13T22:29:21.587Z,100.00
2022-10-13T22:31:48.912Z,100.00
2022-10-13T22:34:17.480Z,100.00
2022-10-13T22:36:45.253Z,100.00
2022-10-13T22:39:12.809Z,100.00
2022-10-13T22:41:39.322Z,100.00
2022-10-13T22:44:05.869Z,100.00
2022-10-13T22:46:34.407Z,100.00
2022-10-13T22:49:01.445Z,100.00
2022-10-13T22:51:31.363Z,100.00
2022-10-13T22:53:58.515Z,100.00
2022-10-13T22:56:27.114Z,100.00
2022-10-13T22:58:56.434Z,100.00
2022-10-13T23:01:24.127Z,100.00
2022-10-13T23:03:52.710Z,100.00
2022-10-13T23:06:21.889Z,100.00
2022-10-13T23:08:49.924Z,100.00
2022-10-13T23:11:17.147Z,100.00
2022-10-13T23:13:43.910Z,100.00
2022-10-13T23:16:12.218Z,100.00
2022-10-13T23:18:39.133Z,100.00
2022-10-13T23:21:05.928Z,100.00
2022-10-13T23:23:32.571Z,100.00
2022-10-13T23:26:03.479Z,100.00
2022-10-13T23:28:30.766Z,100.00
2022-10-13T23:30:59.531Z,100.00
2022-10-13T23:33:26.053Z,100.00
2022-10-13T23:35:55.801Z,100.00
2022-10-13T23:38:22.787Z,100.00
2022-10-13T23:40:49.638Z,100.00
2022-10-13T23:43:17.729Z,100.00
2022-10-13T23:45:44.523Z,100.00
2022-10-13T23:48:11.161Z,100.00
2022-10-13T23:50:37.696Z,100.00
2022-10-13T23:53:04.432Z,100.00
2022-10-13T23:55:31.051Z,100.00
2022-10-13T23:57:57.537Z,100.00
